Adele Elise — WDD7691 — position and weather

sailwx.info

Track history (hours):
 
Tides and Currents Weather Stations Pressure Air Temp Water Temp Dewpoint Dewpoint Depression Visibility Wind Speed Wind Dir Waves Ship Positions

Adele Elise

Owner: ADELE ELISE LLC, MATHEWS, LA. More information available from US FCC via Universal Licensing System and Coast Guard Vessel Documentation Center.

Last reported at 2017-Dec-21 08:37 UTC. Time now 2018-Jan-21 18:15 UTC.
Position N 28°47' W 090°54'.
Warning: this ship's position is 31 days out of date.

Length 70 m; draft 4 m.

MMSI: 367189890.

Date/timePositionNaut miles runAvg speedWind from/ knotsBaromVisibWave heightAir tempDewpointWater temp
2017-Dec-21 08:37N 28°47' W 090°54'110.9
2017-Dec-21 08:30N 28°47' W 090°55'3010.9
2017-Dec-21 05:45N 28°44' W 091°29'1210.8
2017-Dec-21 04:41N 28°44' W 091°43'311.1
2017-Dec-21 04:27N 28°43' W 091°45'1710.7
2017-Dec-21 02:52N 28°42' W 092°05'510.6
2017-Dec-21 02:24N 28°42' W 092°10'410.6
2017-Dec-21 02:00N 28°42' W 092°15'2 3.2
2017-Dec-21 01:30N 28°41' W 092°17'1 1.4
2017-Dec-21 01:00N 28°41' W 092°18'1 1.2
2017-Dec-20 23:59N 28°40' W 092°18'1 1.0
2017-Dec-20 23:06N 28°41' W 092°18'0 0.8
2017-Dec-20 22:57N 28°41' W 092°18'  
Track history (hours):
 
Tides and Currents Weather Stations Pressure Air Temp Water Temp Dewpoint Dewpoint Depression Visibility Wind Speed Wind Dir Waves Ship Positions

Adele Elise

Owner: ADELE ELISE LLC, MATHEWS, LA. More information available from US FCC via Universal Licensing System and Coast Guard Vessel Documentation Center.

Last reported at 2017-Dec-21 08:37 UTC. Time now 2018-Jan-21 18:15 UTC.
Position N 28°47' W 090°54'.
Warning: this ship's position is 31 days out of date.

Length 70 m; draft 4 m.

MMSI: 367189890.

Date/timePositionNaut miles runAvg speedWind from/ knotsBaromVisibWave heightAir tempDewpointWater temp
2017-Dec-21 08:37N 28°47' W 090°54'110.9
2017-Dec-21 08:30N 28°47' W 090°55'3010.9
2017-Dec-21 05:45N 28°44' W 091°29'1210.8
2017-Dec-21 04:41N 28°44' W 091°43'311.1
2017-Dec-21 04:27N 28°43' W 091°45'1710.7
2017-Dec-21 02:52N 28°42' W 092°05'510.6
2017-Dec-21 02:24N 28°42' W 092°10'410.6
2017-Dec-21 02:00N 28°42' W 092°15'2 3.2
2017-Dec-21 01:30N 28°41' W 092°17'1 1.4
2017-Dec-21 01:00N 28°41' W 092°18'1 1.2
2017-Dec-20 23:59N 28°40' W 092°18'1 1.0
2017-Dec-20 23:06N 28°41' W 092°18'0 0.8
2017-Dec-20 22:57N 28°41' W 092°18'  

Dump ship's entire track history